sensor_id;sensor_type;location;lat;lon;timestamp;P1;durP1;ratioP1;P2;durP2;ratioP2
1404;SDS011;697;51.114;6.542;2023-10-08T00:01:38;7.30;;;3.60;;
1404;SDS011;697;51.114;6.542;2023-10-08T00:04:08;6.93;;;3.83;;
1404;SDS011;697;51.114;6.542;2023-10-08T00:06:36;7.13;;;4.60;;
1404;SDS011;697;51.114;6.542;2023-10-08T00:09:03;6.00;;;4.40;;
1404;SDS011;697;51.114;6.542;2023-10-08T00:11:36;8.73;;;4.67;;
1404;SDS011;697;51.114;6.542;2023-10-08T00:14:05;5.87;;;4.60;;
1404;SDS011;697;51.114;6.542;2023-10-08T00:16:36;9.10;;;4.70;;
1404;SDS011;697;51.114;6.542;2023-10-08T00:19:05;6.77;;;3.80;;
1404;SDS011;697;51.114;6.542;2023-10-08T00:21:36;7.07;;;3.63;;
1404;SDS011;697;51.114;6.542;2023-10-08T00:24:03;8.13;;;5.03;;
1404;SDS011;697;51.114;6.542;2023-10-08T00:26:32;4.50;;;3.90;;
1404;SDS011;697;51.114;6.542;2023-10-08T00:29:01;7.47;;;4.47;;
1404;SDS011;697;51.114;6.542;2023-10-08T00:31:31;12.80;;;4.50;;
1404;SDS011;697;51.114;6.542;2023-10-08T00:34:04;6.93;;;4.73;;
1404;SDS011;697;51.114;6.542;2023-10-08T00:36:33;7.03;;;4.07;;
1404;SDS011;697;51.114;6.542;2023-10-08T00:39:02;6.83;;;3.90;;
1404;SDS011;697;51.114;6.542;2023-10-08T00:41:33;6.27;;;4.30;;
1404;SDS011;697;51.114;6.542;2023-10-08T00:44:00;6.17;;;4.30;;
1404;SDS011;697;51.114;6.542;2023-10-08T00:46:31;5.30;;;3.90;;
1404;SDS011;697;51.114;6.542;2023-10-08T00:49:01;8.73;;;4.47;;
1404;SDS011;697;51.114;6.542;2023-10-08T00:51:50;5.40;;;4.40;;
1404;SDS011;697;51.114;6.542;2023-10-08T00:54:29;7.43;;;4.10;;
1404;SDS011;697;51.114;6.542;2023-10-08T00:56:58;7.80;;;4.70;;
1404;SDS011;697;51.114;6.542;2023-10-08T00:59:29;7.80;;;4.33;;
1404;SDS011;697;51.114;6.542;2023-10-08T01:02:09;7.60;;;5.10;;
1404;SDS011;697;51.114;6.542;2023-10-08T01:04:39;8.07;;;4.40;;
1404;SDS011;697;51.114;6.542;2023-10-08T01:07:10;5.73;;;4.30;;
1404;SDS011;697;51.114;6.542;2023-10-08T01:09:41;6.27;;;4.60;;
1404;SDS011;697;51.114;6.542;2023-10-08T01:12:13;8.10;;;4.40;;
1404;SDS011;697;51.114;6.542;2023-10-08T01:14:46;8.40;;;4.90;;
1404;SDS011;697;51.114;6.542;2023-10-08T01:17:14;7.33;;;4.43;;
1404;SDS011;697;51.114;6.542;2023-10-08T01:19:44;9.93;;;4.50;;
1404;SDS011;697;51.114;6.542;2023-10-08T01:22:17;7.30;;;3.83;;
1404;SDS011;697;51.114;6.542;2023-10-08T01:24:47;6.13;;;4.20;;
1404;SDS011;697;51.114;6.542;2023-10-08T01:27:14;5.90;;;3.80;;
1404;SDS011;697;51.114;6.542;2023-10-08T01:29:46;5.40;;;3.80;;
1404;SDS011;697;51.114;6.542;2023-10-08T01:32:14;5.60;;;3.30;;
1404;SDS011;697;51.114;6.542;2023-10-08T01:34:42;8.00;;;4.43;;
1404;SDS011;697;51.114;6.542;2023-10-08T01:37:11;5.43;;;4.50;;
1404;SDS011;697;51.114;6.542;2023-10-08T01:39:40;6.03;;;3.80;;
1404;SDS011;697;51.114;6.542;2023-10-08T01:42:07;6.40;;;3.90;;
1404;SDS011;697;51.114;6.542;2023-10-08T01:44:43;5.50;;;4.00;;
1404;SDS011;697;51.114;6.542;2023-10-08T01:47:12;7.30;;;5.00;;
1404;SDS011;697;51.114;6.542;2023-10-08T01:49:39;5.70;;;3.97;;
1404;SDS011;697;51.114;6.542;2023-10-08T01:52:08;6.77;;;4.70;;
1404;SDS011;697;51.114;6.542;2023-10-08T01:54:42;7.20;;;4.77;;
1404;SDS011;697;51.114;6.542;2023-10-08T01:57:09;6.73;;;4.30;;
1404;SDS011;697;51.114;6.542;2023-10-08T01:59:37;5.27;;;4.07;;
1404;SDS011;697;51.114;6.542;2023-10-08T02:02:04;5.90;;;3.80;;
1404;SDS011;697;51.114;6.542;2023-10-08T02:04:32;7.43;;;4.40;;
1404;SDS011;697;51.114;6.542;2023-10-08T02:07:00;6.63;;;4.63;;
1404;SDS011;697;51.114;6.542;2023-10-08T02:09:28;5.27;;;4.30;;
1404;SDS011;697;51.114;6.542;2023-10-08T02:11:57;5.50;;;3.83;;
1404;SDS011;697;51.114;6.542;2023-10-08T02:14:23;5.63;;;3.97;;
1404;SDS011;697;51.114;6.542;2023-10-08T02:16:50;5.80;;;4.23;;
1404;SDS011;697;51.114;6.542;2023-10-08T02:19:21;6.50;;;3.63;;
1404;SDS011;697;51.114;6.542;2023-10-08T02:21:52;7.90;;;4.60;;
1404;SDS011;697;51.114;6.542;2023-10-08T02:24:19;13.87;;;8.30;;
1404;SDS011;697;51.114;6.542;2023-10-08T02:26:47;16.70;;;7.80;;
1404;SDS011;697;51.114;6.542;2023-10-08T02:29:15;6.60;;;4.53;;
1404;SDS011;697;51.114;6.542;2023-10-08T02:31:42;6.50;;;4.23;;
1404;SDS011;697;51.114;6.542;2023-10-08T02:34:09;6.23;;;4.10;;
1404;SDS011;697;51.114;6.542;2023-10-08T02:36:38;4.60;;;3.90;;
1404;SDS011;697;51.114;6.542;2023-10-08T02:39:06;7.30;;;4.47;;
1404;SDS011;697;51.114;6.542;2023-10-08T02:41:38;5.97;;;4.00;;
1404;SDS011;697;51.114;6.542;2023-10-08T02:44:07;5.87;;;4.10;;
1404;SDS011;697;51.114;6.542;2023-10-08T02:46:38;8.67;;;4.37;;
1404;SDS011;697;51.114;6.542;2023-10-08T02:49:06;5.83;;;3.77;;
1404;SDS011;697;51.114;6.542;2023-10-08T02:51:35;11.03;;;4.83;;
1404;SDS011;697;51.114;6.542;2023-10-08T02:54:02;7.00;;;4.87;;
1404;SDS011;697;51.114;6.542;2023-10-08T02:56:31;8.10;;;4.13;;
1404;SDS011;697;51.114;6.542;2023-10-08T02:58:58;7.53;;;3.97;;
1404;SDS011;697;51.114;6.542;2023-10-08T03:01:25;9.93;;;4.07;;
1404;SDS011;697;51.114;6.542;2023-10-08T03:03:53;7.13;;;4.50;;
1404;SDS011;697;51.114;6.542;2023-10-08T03:06:33;6.77;;;3.60;;
1404;SDS011;697;51.114;6.542;2023-10-08T03:09:00;5.90;;;4.07;;
1404;SDS011;697;51.114;6.542;2023-10-08T03:11:29;7.37;;;4.60;;
1404;SDS011;697;51.114;6.542;2023-10-08T03:13:56;10.37;;;4.27;;
1404;SDS011;697;51.114;6.542;2023-10-08T03:16:23;8.20;;;4.17;;
1404;SDS011;697;51.114;6.542;2023-10-08T03:18:55;6.80;;;4.70;;
1404;SDS011;697;51.114;6.542;2023-10-08T03:21:22;8.27;;;4.30;;
1404;SDS011;697;51.114;6.542;2023-10-08T03:24:09;6.33;;;4.50;;
1404;SDS011;697;51.114;6.542;2023-10-08T03:26:54;9.17;;;4.40;;
1404;SDS011;697;51.114;6.542;2023-10-08T03:29:32;8.97;;;4.40;;
1404;SDS011;697;51.114;6.542;2023-10-08T03:32:05;6.80;;;4.50;;
1404;SDS011;697;51.114;6.542;2023-10-08T03:34:39;6.93;;;4.40;;
1404;SDS011;697;51.114;6.542;2023-10-08T03:37:08;8.87;;;5.30;;
1404;SDS011;697;51.114;6.542;2023-10-08T03:39:40;6.57;;;4.00;;
1404;SDS011;697;51.114;6.542;2023-10-08T03:42:20;6.60;;;4.77;;
1404;SDS011;697;51.114;6.542;2023-10-08T03:44:47;7.20;;;4.30;;
1404;SDS011;697;51.114;6.542;2023-10-08T03:47:17;8.93;;;4.20;;
1404;SDS011;697;51.114;6.542;2023-10-08T03:49:48;7.77;;;4.43;;
1404;SDS011;697;51.114;6.542;2023-10-08T03:52:16;8.90;;;4.13;;
1404;SDS011;697;51.114;6.542;2023-10-08T03:54:44;8.87;;;4.30;;
1404;SDS011;697;51.114;6.542;2023-10-08T03:57:13;7.00;;;4.00;;
1404;SDS011;697;51.114;6.542;2023-10-08T04:00:00;8.93;;;4.60;;
1404;SDS011;697;51.114;6.542;2023-10-08T04:02:34;10.77;;;5.40;;
1404;SDS011;697;51.114;6.542;2023-10-08T04:05:07;6.83;;;4.63;;
1404;SDS011;697;51.114;6.542;2023-10-08T04:07:44;7.87;;;4.50;;
1404;SDS011;697;51.114;6.542;2023-10-08T04:10:38;7.07;;;4.47;;
1404;SDS011;697;51.114;6.542;2023-10-08T04:13:25;6.33;;;4.53;;
1404;SDS011;697;51.114;6.542;2023-10-08T04:15:53;7.27;;;4.13;;
1404;SDS011;697;51.114;6.542;2023-10-08T04:18:20;10.70;;;4.43;;
1404;SDS011;697;51.114;6.542;2023-10-08T04:20:46;13.30;;;6.00;;
1404;SDS011;697;51.114;6.542;2023-10-08T04:23:25;6.70;;;4.30;;
1404;SDS011;697;51.114;6.542;2023-10-08T04:25:55;14.80;;;5.00;;
1404;SDS011;697;51.114;6.542;2023-10-08T04:28:22;8.10;;;4.87;;
1404;SDS011;697;51.114;6.542;2023-10-08T04:30:53;10.30;;;5.13;;
1404;SDS011;697;51.114;6.542;2023-10-08T04:33:26;6.63;;;4.03;;
1404;SDS011;697;51.114;6.542;2023-10-08T04:35:56;8.43;;;4.83;;
1404;SDS011;697;51.114;6.542;2023-10-08T04:38:26;7.30;;;4.47;;
1404;SDS011;697;51.114;6.542;2023-10-08T04:40:56;6.50;;;4.40;;
1404;SDS011;697;51.114;6.542;2023-10-08T04:43:26;8.97;;;5.20;;
1404;SDS011;697;51.114;6.542;2023-10-08T04:45:55;9.40;;;5.27;;
1404;SDS011;697;51.114;6.542;2023-10-08T04:48:22;9.43;;;4.63;;
1404;SDS011;697;51.114;6.542;2023-10-08T04:50:50;10.13;;;4.40;;
1404;SDS011;697;51.114;6.542;2023-10-08T04:53:24;8.13;;;4.00;;
1404;SDS011;697;51.114;6.542;2023-10-08T04:55:58;6.50;;;4.20;;
1404;SDS011;697;51.114;6.542;2023-10-08T04:58:28;9.73;;;4.80;;
1404;SDS011;697;51.114;6.542;2023-10-08T05:01:01;7.90;;;4.03;;
1404;SDS011;697;51.114;6.542;2023-10-08T05:03:42;9.13;;;4.33;;
1404;SDS011;697;51.114;6.542;2023-10-08T05:06:30;6.03;;;4.13;;
1404;SDS011;697;51.114;6.542;2023-10-08T05:09:15;9.33;;;4.80;;
1404;SDS011;697;51.114;6.542;2023-10-08T05:11:50;7.90;;;4.30;;
1404;SDS011;697;51.114;6.542;2023-10-08T05:14:35;6.80;;;4.17;;
1404;SDS011;697;51.114;6.542;2023-10-08T05:17:10;11.53;;;5.17;;
1404;SDS011;697;51.114;6.542;2023-10-08T05:19:47;7.50;;;4.53;;
1404;SDS011;697;51.114;6.542;2023-10-08T05:22:21;6.40;;;4.67;;
1404;SDS011;697;51.114;6.542;2023-10-08T05:25:09;9.10;;;4.70;;
1404;SDS011;697;51.114;6.542;2023-10-08T05:27:51;9.70;;;4.73;;
1404;SDS011;697;51.114;6.542;2023-10-08T05:30:24;8.43;;;4.73;;
1404;SDS011;697;51.114;6.542;2023-10-08T05:33:03;10.10;;;5.13;;
1404;SDS011;697;51.114;6.542;2023-10-08T05:35:48;7.20;;;4.23;;
1404;SDS011;697;51.114;6.542;2023-10-08T05:38:19;6.00;;;4.10;;
1404;SDS011;697;51.114;6.542;2023-10-08T05:41:03;6.47;;;4.67;;
1404;SDS011;697;51.114;6.542;2023-10-08T05:43:43;6.10;;;4.70;;
1404;SDS011;697;51.114;6.542;2023-10-08T05:46:38;7.70;;;4.50;;
1404;SDS011;697;51.114;6.542;2023-10-08T05:49:12;7.63;;;4.40;;
1404;SDS011;697;51.114;6.542;2023-10-08T05:51:51;12.97;;;5.27;;
1404;SDS011;697;51.114;6.542;2023-10-08T05:54:35;9.20;;;5.50;;
1404;SDS011;697;51.114;6.542;2023-10-08T05:57:12;10.50;;;4.47;;
1404;SDS011;697;51.114;6.542;2023-10-08T05:59:51;10.33;;;5.60;;
1404;SDS011;697;51.114;6.542;2023-10-08T06:02:34;7.40;;;4.50;;
1404;SDS011;697;51.114;6.542;2023-10-08T06:05:25;7.23;;;4.93;;
1404;SDS011;697;51.114;6.542;2023-10-08T06:07:58;7.27;;;4.67;;
1404;SDS011;697;51.114;6.542;2023-10-08T06:10:36;6.17;;;4.53;;
1404;SDS011;697;51.114;6.542;2023-10-08T06:13:12;6.40;;;4.20;;
1404;SDS011;697;51.114;6.542;2023-10-08T06:15:43;5.60;;;5.00;;
1404;SDS011;697;51.114;6.542;2023-10-08T06:18:16;5.10;;;4.33;;
1404;SDS011;697;51.114;6.542;2023-10-08T06:20:43;7.80;;;5.13;;
1404;SDS011;697;51.114;6.542;2023-10-08T06:23:11;8.00;;;5.27;;
1404;SDS011;697;51.114;6.542;2023-10-08T06:25:41;7.50;;;4.90;;
1404;SDS011;697;51.114;6.542;2023-10-08T06:28:19;9.00;;;5.20;;
1404;SDS011;697;51.114;6.542;2023-10-08T06:30:47;4.63;;;4.13;;
1404;SDS011;697;51.114;6.542;2023-10-08T06:33:18;8.57;;;4.60;;
1404;SDS011;697;51.114;6.542;2023-10-08T06:35:46;10.17;;;5.10;;
1404;SDS011;697;51.114;6.542;2023-10-08T06:38:26;7.27;;;4.40;;
1404;SDS011;697;51.114;6.542;2023-10-08T06:40:55;8.03;;;5.33;;
1404;SDS011;697;51.114;6.542;2023-10-08T06:43:25;9.90;;;5.17;;
1404;SDS011;697;51.114;6.542;2023-10-08T06:45:53;6.90;;;4.50;;
1404;SDS011;697;51.114;6.542;2023-10-08T06:48:23;8.87;;;5.50;;
1404;SDS011;697;51.114;6.542;2023-10-08T06:50:51;7.50;;;4.73;;
1404;SDS011;697;51.114;6.542;2023-10-08T06:53:22;8.30;;;4.83;;
1404;SDS011;697;51.114;6.542;2023-10-08T06:55:49;8.27;;;5.10;;
1404;SDS011;697;51.114;6.542;2023-10-08T06:58:21;10.47;;;4.70;;
1404;SDS011;697;51.114;6.542;2023-10-08T07:00:48;8.43;;;4.83;;
1404;SDS011;697;51.114;6.542;2023-10-08T07:03:16;7.60;;;5.13;;
1404;SDS011;697;51.114;6.542;2023-10-08T07:05:44;11.87;;;5.33;;
1404;SDS011;697;51.114;6.542;2023-10-08T07:08:19;9.70;;;5.27;;
1404;SDS011;697;51.114;6.542;2023-10-08T07:10:48;8.47;;;4.97;;
1404;SDS011;697;51.114;6.542;2023-10-08T07:13:15;8.13;;;5.30;;
1404;SDS011;697;51.114;6.542;2023-10-08T07:15:42;8.53;;;5.27;;
1404;SDS011;697;51.114;6.542;2023-10-08T07:18:10;9.80;;;6.20;;
1404;SDS011;697;51.114;6.542;2023-10-08T07:20:40;7.53;;;4.73;;
1404;SDS011;697;51.114;6.542;2023-10-08T07:23:10;9.63;;;5.20;;
1404;SDS011;697;51.114;6.542;2023-10-08T07:25:45;10.20;;;5.57;;
1404;SDS011;697;51.114;6.542;2023-10-08T07:28:17;6.77;;;4.73;;
1404;SDS011;697;51.114;6.542;2023-10-08T07:30:44;9.33;;;4.90;;
1404;SDS011;697;51.114;6.542;2023-10-08T07:33:14;8.73;;;5.13;;
1404;SDS011;697;51.114;6.542;2023-10-08T07:35:45;6.43;;;4.43;;
1404;SDS011;697;51.114;6.542;2023-10-08T07:38:19;11.23;;;5.40;;
1404;SDS011;697;51.114;6.542;2023-10-08T07:40:47;10.47;;;5.33;;
1404;SDS011;697;51.114;6.542;2023-10-08T07:43:15;7.73;;;4.97;;
1404;SDS011;697;51.114;6.542;2023-10-08T07:45:45;10.60;;;4.80;;
1404;SDS011;697;51.114;6.542;2023-10-08T07:48:12;10.10;;;5.37;;
1404;SDS011;697;51.114;6.542;2023-10-08T07:50:40;11.17;;;5.53;;
1404;SDS011;697;51.114;6.542;2023-10-08T07:53:10;9.07;;;4.70;;
1404;SDS011;697;51.114;6.542;2023-10-08T07:55:43;9.63;;;5.67;;
1404;SDS011;697;51.114;6.542;2023-10-08T07:58:11;6.73;;;5.20;;
1404;SDS011;697;51.114;6.542;2023-10-08T08:00:39;6.80;;;5.23;;
1404;SDS011;697;51.114;6.542;2023-10-08T08:03:06;7.13;;;5.30;;
1404;SDS011;697;51.114;6.542;2023-10-08T08:05:33;12.90;;;5.20;;
1404;SDS011;697;51.114;6.542;2023-10-08T08:08:02;8.00;;;4.97;;
1404;SDS011;697;51.114;6.542;2023-10-08T08:10:33;7.97;;;5.73;;
1404;SDS011;697;51.114;6.542;2023-10-08T08:13:02;8.40;;;5.27;;
1404;SDS011;697;51.114;6.542;2023-10-08T08:15:31;11.90;;;5.60;;
1404;SDS011;697;51.114;6.542;2023-10-08T08:17:58;10.93;;;5.77;;
1404;SDS011;697;51.114;6.542;2023-10-08T08:20:25;9.03;;;5.63;;
1404;SDS011;697;51.114;6.542;2023-10-08T08:23:04;14.13;;;6.10;;
1404;SDS011;697;51.114;6.542;2023-10-08T08:25:36;11.00;;;5.53;;
1404;SDS011;697;51.114;6.542;2023-10-08T08:28:10;8.37;;;5.53;;
1404;SDS011;697;51.114;6.542;2023-10-08T08:30:42;12.20;;;6.07;;
1404;SDS011;697;51.114;6.542;2023-10-08T08:33:11;10.00;;;5.40;;
1404;SDS011;697;51.114;6.542;2023-10-08T08:35:42;7.33;;;5.80;;
1404;SDS011;697;51.114;6.542;2023-10-08T08:38:10;8.57;;;5.30;;
1404;SDS011;697;51.114;6.542;2023-10-08T08:40:38;7.67;;;5.80;;
1404;SDS011;697;51.114;6.542;2023-10-08T08:43:06;12.40;;;6.20;;
1404;SDS011;697;51.114;6.542;2023-10-08T08:45:34;11.67;;;6.27;;
1404;SDS011;697;51.114;6.542;2023-10-08T08:48:05;11.83;;;6.03;;
1404;SDS011;697;51.114;6.542;2023-10-08T08:50:33;14.57;;;5.63;;
1404;SDS011;697;51.114;6.542;2023-10-08T08:53:01;10.37;;;5.70;;
1404;SDS011;697;51.114;6.542;2023-10-08T08:55:29;9.93;;;5.93;;
1404;SDS011;697;51.114;6.542;2023-10-08T08:57:59;8.40;;;5.33;;
1404;SDS011;697;51.114;6.542;2023-10-08T09:00:29;11.90;;;6.27;;
1404;SDS011;697;51.114;6.542;2023-10-08T09:02:56;11.33;;;6.67;;
1404;SDS011;697;51.114;6.542;2023-10-08T09:05:24;13.07;;;5.00;;
1404;SDS011;697;51.114;6.542;2023-10-08T09:07:51;8.87;;;5.70;;
1404;SDS011;697;51.114;6.542;2023-10-08T09:10:23;8.93;;;4.80;;
1404;SDS011;697;51.114;6.542;2023-10-08T09:12:53;12.87;;;5.60;;
1404;SDS011;697;51.114;6.542;2023-10-08T09:15:23;16.03;;;6.40;;
1404;SDS011;697;51.114;6.542;2023-10-08T09:17:51;8.27;;;5.63;;
1404;SDS011;697;51.114;6.542;2023-10-08T09:20:18;11.43;;;5.37;;
1404;SDS011;697;51.114;6.542;2023-10-08T09:22:46;8.07;;;5.50;;
1404;SDS011;697;51.114;6.542;2023-10-08T09:25:32;12.53;;;6.63;;
1404;SDS011;697;51.114;6.542;2023-10-08T09:27:59;11.60;;;6.80;;
1404;SDS011;697;51.114;6.542;2023-10-08T09:30:29;17.50;;;6.83;;
1404;SDS011;697;51.114;6.542;2023-10-08T09:32:56;15.57;;;7.30;;
1404;SDS011;697;51.114;6.542;2023-10-08T09:35:23;10.33;;;6.53;;
1404;SDS011;697;51.114;6.542;2023-10-08T09:37:52;15.50;;;6.73;;
1404;SDS011;697;51.114;6.542;2023-10-08T09:40:20;10.20;;;5.83;;
1404;SDS011;697;51.114;6.542;2023-10-08T09:42:47;12.93;;;6.60;;
1404;SDS011;697;51.114;6.542;2023-10-08T09:45:14;11.77;;;6.40;;
1404;SDS011;697;51.114;6.542;2023-10-08T09:47:44;11.10;;;6.77;;
1404;SDS011;697;51.114;6.542;2023-10-08T09:50:16;10.90;;;7.23;;
1404;SDS011;697;51.114;6.542;2023-10-08T09:52:49;12.90;;;6.57;;
1404;SDS011;697;51.114;6.542;2023-10-08T09:55:21;13.07;;;6.53;;
1404;SDS011;697;51.114;6.542;2023-10-08T09:57:49;17.67;;;8.50;;
1404;SDS011;697;51.114;6.542;2023-10-08T10:00:16;13.20;;;7.90;;
1404;SDS011;697;51.114;6.542;2023-10-08T10:02:55;15.13;;;6.70;;
1404;SDS011;697;51.114;6.542;2023-10-08T10:05:27;15.43;;;9.07;;
1404;SDS011;697;51.114;6.542;2023-10-08T10:07:55;18.50;;;8.10;;
1404;SDS011;697;51.114;6.542;2023-10-08T10:10:26;16.87;;;7.87;;
1404;SDS011;697;51.114;6.542;2023-10-08T10:12:57;16.50;;;7.80;;
1404;SDS011;697;51.114;6.542;2023-10-08T10:15:25;10.73;;;6.00;;
1404;SDS011;697;51.114;6.542;2023-10-08T10:17:58;12.57;;;7.53;;
1404;SDS011;697;51.114;6.542;2023-10-08T10:20:25;13.10;;;6.70;;
1404;SDS011;697;51.114;6.542;2023-10-08T10:22:52;16.97;;;8.93;;
1404;SDS011;697;51.114;6.542;2023-10-08T10:25:33;14.53;;;7.70;;
1404;SDS011;697;51.114;6.542;2023-10-08T10:30:50;13.87;;;7.77;;
1404;SDS011;697;51.114;6.542;2023-10-08T10:33:18;14.90;;;7.27;;
1404;SDS011;697;51.114;6.542;2023-10-08T10:35:49;18.53;;;9.40;;
1404;SDS011;697;51.114;6.542;2023-10-08T10:38:18;13.00;;;7.47;;
1404;SDS011;697;51.114;6.542;2023-10-08T10:40:48;17.40;;;7.33;;
1404;SDS011;697;51.114;6.542;2023-10-08T10:43:22;11.00;;;7.20;;
1404;SDS011;697;51.114;6.542;2023-10-08T10:45:57;15.93;;;8.90;;
1404;SDS011;697;51.114;6.542;2023-10-08T10:48:26;13.90;;;8.10;;
1404;SDS011;697;51.114;6.542;2023-10-08T10:50:59;16.33;;;8.90;;
1404;SDS011;697;51.114;6.542;2023-10-08T10:53:35;14.23;;;7.17;;
1404;SDS011;697;51.114;6.542;2023-10-08T10:56:11;14.10;;;8.10;;
1404;SDS011;697;51.114;6.542;2023-10-08T10:58:43;16.37;;;10.60;;
1404;SDS011;697;51.114;6.542;2023-10-08T11:01:11;22.67;;;10.07;;
1404;SDS011;697;51.114;6.542;2023-10-08T11:03:50;15.13;;;7.40;;
1404;SDS011;697;51.114;6.542;2023-10-08T11:06:18;19.50;;;8.87;;
1404;SDS011;697;51.114;6.542;2023-10-08T11:08:48;15.87;;;9.13;;
1404;SDS011;697;51.114;6.542;2023-10-08T11:11:16;19.23;;;9.30;;
1404;SDS011;697;51.114;6.542;2023-10-08T11:13:43;19.10;;;10.03;;
1404;SDS011;697;51.114;6.542;2023-10-08T11:16:17;12.03;;;7.80;;
1404;SDS011;697;51.114;6.542;2023-10-08T11:18:46;9.77;;;6.53;;
1404;SDS011;697;51.114;6.542;2023-10-08T11:21:16;15.40;;;8.20;;
1404;SDS011;697;51.114;6.542;2023-10-08T11:23:49;12.10;;;8.67;;
1404;SDS011;697;51.114;6.542;2023-10-08T11:26:20;15.50;;;8.27;;
1404;SDS011;697;51.114;6.542;2023-10-08T11:28:57;14.67;;;11.00;;
1404;SDS011;697;51.114;6.542;2023-10-08T11:31:26;13.53;;;7.70;;
1404;SDS011;697;51.114;6.542;2023-10-08T11:33:58;16.30;;;9.37;;
1404;SDS011;697;51.114;6.542;2023-10-08T11:36:27;21.37;;;10.30;;
1404;SDS011;697;51.114;6.542;2023-10-08T11:38:55;15.63;;;9.90;;
1404;SDS011;697;51.114;6.542;2023-10-08T11:41:27;24.30;;;10.10;;
1404;SDS011;697;51.114;6.542;2023-10-08T11:43:55;24.07;;;10.73;;
1404;SDS011;697;51.114;6.542;2023-10-08T11:46:23;18.03;;;10.10;;
1404;SDS011;697;51.114;6.542;2023-10-08T11:48:57;12.93;;;9.10;;
1404;SDS011;697;51.114;6.542;2023-10-08T11:51:31;23.20;;;10.90;;
1404;SDS011;697;51.114;6.542;2023-10-08T11:53:58;18.17;;;9.30;;
1404;SDS011;697;51.114;6.542;2023-10-08T11:56:26;18.73;;;9.00;;
1404;SDS011;697;51.114;6.542;2023-10-08T11:58:52;15.93;;;8.57;;
1404;SDS011;697;51.114;6.542;2023-10-08T12:01:22;15.80;;;8.60;;
1404;SDS011;697;51.114;6.542;2023-10-08T12:03:49;19.03;;;8.07;;
1404;SDS011;697;51.114;6.542;2023-10-08T12:06:16;16.77;;;9.97;;
1404;SDS011;697;51.114;6.542;2023-10-08T12:08:45;15.97;;;10.53;;
1404;SDS011;697;51.114;6.542;2023-10-08T12:11:13;16.43;;;8.63;;
1404;SDS011;697;51.114;6.542;2023-10-08T12:13:40;26.63;;;11.30;;
1404;SDS011;697;51.114;6.542;2023-10-08T12:16:10;21.73;;;9.37;;
1404;SDS011;697;51.114;6.542;2023-10-08T12:18:46;37.67;;;12.87;;
1404;SDS011;697;51.114;6.542;2023-10-08T12:21:18;22.43;;;12.20;;
1404;SDS011;697;51.114;6.542;2023-10-08T12:23:46;19.53;;;10.33;;
1404;SDS011;697;51.114;6.542;2023-10-08T12:26:14;20.27;;;10.73;;
1404;SDS011;697;51.114;6.542;2023-10-08T12:28:43;18.30;;;9.20;;
1404;SDS011;697;51.114;6.542;2023-10-08T12:31:11;17.57;;;10.50;;
1404;SDS011;697;51.114;6.542;2023-10-08T12:33:40;23.60;;;10.43;;
1404;SDS011;697;51.114;6.542;2023-10-08T12:36:08;20.37;;;9.07;;
1404;SDS011;697;51.114;6.542;2023-10-08T12:38:41;15.77;;;9.07;;
1404;SDS011;697;51.114;6.542;2023-10-08T12:41:10;18.40;;;8.43;;
1404;SDS011;697;51.114;6.542;2023-10-08T12:43:42;13.97;;;8.70;;
1404;SDS011;697;51.114;6.542;2023-10-08T12:46:10;11.80;;;8.63;;
1404;SDS011;697;51.114;6.542;2023-10-08T12:48:43;14.93;;;8.10;;
1404;SDS011;697;51.114;6.542;2023-10-08T12:51:12;19.47;;;9.80;;
1404;SDS011;697;51.114;6.542;2023-10-08T12:53:40;14.97;;;8.97;;
1404;SDS011;697;51.114;6.542;2023-10-08T12:56:16;18.63;;;10.20;;
1404;SDS011;697;51.114;6.542;2023-10-08T12:58:47;15.67;;;9.10;;
1404;SDS011;697;51.114;6.542;2023-10-08T13:01:14;15.77;;;8.57;;
1404;SDS011;697;51.114;6.542;2023-10-08T13:03:42;14.63;;;9.83;;
1404;SDS011;697;51.114;6.542;2023-10-08T13:06:12;14.90;;;9.40;;
1404;SDS011;697;51.114;6.542;2023-10-08T13:08:46;16.57;;;9.50;;
1404;SDS011;697;51.114;6.542;2023-10-08T13:11:13;13.20;;;9.00;;
1404;SDS011;697;51.114;6.542;2023-10-08T13:13:41;19.13;;;12.53;;
1404;SDS011;697;51.114;6.542;2023-10-08T13:16:09;16.17;;;10.60;;
1404;SDS011;697;51.114;6.542;2023-10-08T13:18:36;14.30;;;8.43;;
1404;SDS011;697;51.114;6.542;2023-10-08T13:21:03;14.53;;;10.70;;
1404;SDS011;697;51.114;6.542;2023-10-08T13:23:31;18.60;;;11.10;;
1404;SDS011;697;51.114;6.542;2023-10-08T13:26:00;17.90;;;11.20;;
1404;SDS011;697;51.114;6.542;2023-10-08T13:28:29;22.10;;;10.77;;
1404;SDS011;697;51.114;6.542;2023-10-08T13:31:00;16.17;;;11.43;;
1404;SDS011;697;51.114;6.542;2023-10-08T13:33:34;17.93;;;10.57;;
1404;SDS011;697;51.114;6.542;2023-10-08T13:36:04;18.73;;;11.47;;
1404;SDS011;697;51.114;6.542;2023-10-08T13:38:33;19.07;;;11.70;;
1404;SDS011;697;51.114;6.542;2023-10-08T13:40:59;23.80;;;10.50;;
1404;SDS011;697;51.114;6.542;2023-10-08T13:43:28;17.00;;;10.43;;
1404;SDS011;697;51.114;6.542;2023-10-08T13:46:01;26.97;;;12.43;;
1404;SDS011;697;51.114;6.542;2023-10-08T13:48:31;17.43;;;12.07;;
1404;SDS011;697;51.114;6.542;2023-10-08T13:50:59;25.10;;;13.50;;
1404;SDS011;697;51.114;6.542;2023-10-08T13:53:28;15.87;;;10.30;;
1404;SDS011;697;51.114;6.542;2023-10-08T13:55:56;15.70;;;10.83;;
1404;SDS011;697;51.114;6.542;2023-10-08T13:58:25;14.63;;;9.13;;
1404;SDS011;697;51.114;6.542;2023-10-08T14:00:53;19.60;;;12.30;;
1404;SDS011;697;51.114;6.542;2023-10-08T14:03:21;18.57;;;10.33;;
1404;SDS011;697;51.114;6.542;2023-10-08T14:05:49;13.97;;;10.80;;
1404;SDS011;697;51.114;6.542;2023-10-08T14:08:16;19.30;;;12.53;;
1404;SDS011;697;51.114;6.542;2023-10-08T14:10:44;14.87;;;11.00;;
1404;SDS011;697;51.114;6.542;2023-10-08T14:13:13;17.00;;;9.60;;
1404;SDS011;697;51.114;6.542;2023-10-08T14:15:44;17.40;;;9.60;;
1404;SDS011;697;51.114;6.542;2023-10-08T14:18:22;16.60;;;10.80;;
1404;SDS011;697;51.114;6.542;2023-10-08T14:20:53;14.97;;;10.63;;
1404;SDS011;697;51.114;6.542;2023-10-08T14:23:20;13.63;;;10.00;;
1404;SDS011;697;51.114;6.542;2023-10-08T14:25:47;19.53;;;11.80;;
1404;SDS011;697;51.114;6.542;2023-10-08T14:28:16;21.10;;;11.87;;
1404;SDS011;697;51.114;6.542;2023-10-08T14:30:48;15.77;;;11.20;;
1404;SDS011;697;51.114;6.542;2023-10-08T14:33:19;15.70;;;11.07;;
1404;SDS011;697;51.114;6.542;2023-10-08T14:35:53;15.43;;;9.97;;
1404;SDS011;697;51.114;6.542;2023-10-08T14:38:37;15.20;;;8.70;;
1404;SDS011;697;51.114;6.542;2023-10-08T14:41:21;17.97;;;12.23;;
1404;SDS011;697;51.114;6.542;2023-10-08T14:44:05;19.17;;;11.75;;
1404;SDS011;697;51.114;6.542;2023-10-08T14:46:32;18.70;;;9.67;;
1404;SDS011;697;51.114;6.542;2023-10-08T14:49:02;17.50;;;10.40;;
1404;SDS011;697;51.114;6.542;2023-10-08T14:51:35;18.17;;;10.00;;
1404;SDS011;697;51.114;6.542;2023-10-08T14:54:05;17.13;;;11.33;;
1404;SDS011;697;51.114;6.542;2023-10-08T14:56:32;15.17;;;8.93;;
1404;SDS011;697;51.114;6.542;2023-10-08T14:59:00;13.33;;;7.60;;
1404;SDS011;697;51.114;6.542;2023-10-08T15:01:27;15.73;;;8.00;;
1404;SDS011;697;51.114;6.542;2023-10-08T15:03:54;17.30;;;9.10;;
1404;SDS011;697;51.114;6.542;2023-10-08T15:06:20;18.13;;;8.80;;
1404;SDS011;697;51.114;6.542;2023-10-08T15:08:49;14.80;;;10.20;;
1404;SDS011;697;51.114;6.542;2023-10-08T15:11:17;18.07;;;10.10;;
1404;SDS011;697;51.114;6.542;2023-10-08T15:13:44;15.77;;;10.37;;
1404;SDS011;697;51.114;6.542;2023-10-08T15:16:11;17.23;;;9.90;;
1404;SDS011;697;51.114;6.542;2023-10-08T15:18:38;19.00;;;10.17;;
1404;SDS011;697;51.114;6.542;2023-10-08T15:21:07;17.90;;;9.80;;
1404;SDS011;697;51.114;6.542;2023-10-08T15:23:34;17.20;;;9.93;;
1404;SDS011;697;51.114;6.542;2023-10-08T15:26:05;17.10;;;11.57;;
1404;SDS011;697;51.114;6.542;2023-10-08T15:28:32;17.03;;;10.00;;
1404;SDS011;697;51.114;6.542;2023-10-08T15:30:58;15.00;;;8.50;;
1404;SDS011;697;51.114;6.542;2023-10-08T15:33:25;20.83;;;10.03;;
1404;SDS011;697;51.114;6.542;2023-10-08T15:35:52;15.10;;;8.63;;
1404;SDS011;697;51.114;6.542;2023-10-08T15:38:19;12.97;;;8.53;;
1404;SDS011;697;51.114;6.542;2023-10-08T15:40:45;13.00;;;9.50;;
1404;SDS011;697;51.114;6.542;2023-10-08T15:43:15;11.10;;;9.33;;
1404;SDS011;697;51.114;6.542;2023-10-08T15:45:43;13.47;;;9.07;;